Time;durP1;ratioP1;P1;durP2;ratioP2;P2;SDS_P1;SDS_P2;PMS_P1;PMS_P2;Temp;Humidity;BMP_temperature;BMP_pressure;BME280_temperature;BME280_humidity;BME280_pressure;Samples;Min_cycle;Max_cycle;Signal;HPM_P1;HPM_P2
2021/04/21 00:01:02;;;;;;;303.95;283.98;;;;;;;;;;4415240;32;20140;-83
2021/04/21 00:03:31;;;;;;;182.62;170.73;;;;;;;;;;4426333;32;20066;-85
2021/04/21 00:06:03;;;;;;;340.42;316.67;;;;;;;;;;4422742;32;20058;-84
2021/04/21 00:08:36;;;;;;;123.93;115.88;;;;;;;;;;4420724;32;21524;-82
2021/04/21 00:11:07;;;;;;;191.43;179.27;;;;;;;;;;4416627;32;20128;-83
2021/04/21 00:13:36;;;;;;;292.25;273.02;;;;;;;;;;4417642;32;20450;-86
2021/04/21 00:16:06;;;;;;;297.27;277.60;;;;;;;;;;4429729;32;20440;-87
2021/04/21 00:18:38;;;;;;;358.08;333.38;;;;;;;;;;4425025;32;20113;-87
2021/04/21 00:21:06;;;;;;;223.98;209.45;;;;;;;;;;4415351;32;20798;-87
2021/04/21 00:23:37;;;;;;;283.20;264.95;;;;;;;;;;4426737;32;20065;-85
2021/04/21 00:26:11;;;;;;;193.75;181.27;;;;;;;;;;4423083;32;20073;-87
2021/04/21 00:28:42;;;;;;;134.02;125.38;;;;;;;;;;4432328;32;20110;-90
2021/04/21 00:31:12;;;;;;;157.07;146.10;;;;;;;;;;4402905;32;20502;-85
2021/04/21 00:33:43;;;;;;;78.20;71.68;;;;;;;;;;4420735;32;20129;-90
2021/04/21 00:36:15;;;;;;;133.75;124.90;;;;;;;;;;4422574;32;20117;-84
2021/04/21 00:38:49;;;;;;;144.50;134.93;;;;;;;;;;4426126;32;20073;-84
2021/04/21 00:41:29;;;;;;;121.57;112.80;;;;;;;;;;4426165;32;20073;-87
2021/04/21 00:44:06;;;;;;;147.18;136.55;;;;;;;;;;4424121;32;20097;-85
2021/04/21 00:46:42;;;;;;;349.33;325.48;;;;;;;;;;4412797;32;20058;-84
2021/04/21 00:49:26;;;;;;;108.95;101.70;;;;;;;;;;4421237;32;20721;-87
2021/04/21 00:52:04;;;;;;;115.20;106.70;;;;;;;;;;4403386;32;20062;-86
2021/04/21 00:54:37;;;;;;;142.93;133.20;;;;;;;;;;4419935;32;20807;-82
2021/04/21 00:57:13;;;;;;;201.05;188.15;;;;;;;;;;4425568;32;20077;-85
2021/04/21 00:59:52;;;;;;;120.70;112.40;;;;;;;;;;4426175;32;20057;-84
2021/04/21 01:02:25;;;;;;;268.80;251.00;;;;;;;;;;4401257;32;20601;-88
2021/04/21 01:04:56;;;;;;;209.02;196.20;;;;;;;;;;4427823;32;20200;-87
2021/04/21 01:07:30;;;;;;;147.10;137.75;;;;;;;;;;4416882;32;20054;-84
2021/04/21 01:10:02;;;;;;;94.60;87.85;;;;;;;;;;4418124;32;20408;-88
2021/04/21 01:12:33;;;;;;;86.55;80.43;;;;;;;;;;4426128;32;20501;-87
2021/04/21 01:15:03;;;;;;;83.00;77.37;;;;;;;;;;4422670;32;20417;-87
2021/04/21 01:17:37;;;;;;;226.93;212.93;;;;;;;;;;4417489;32;20121;-86
2021/04/21 01:20:08;;;;;;;87.25;81.72;;;;;;;;;;4402772;32;20095;-84
2021/04/21 01:22:36;;;;;;;101.25;94.30;;;;;;;;;;4416020;32;20683;-88
2021/04/21 01:25:08;;;;;;;89.07;82.88;;;;;;;;;;4405928;32;20133;-85
2021/04/21 01:27:42;;;;;;;97.55;91.37;;;;;;;;;;4425668;32;20147;-89
2021/04/21 01:30:11;;;;;;;214.18;200.25;;;;;;;;;;4423488;32;20213;-84
2021/04/21 01:32:44;;;;;;;90.20;84.32;;;;;;;;;;4425930;32;20139;-82
2021/04/21 01:35:18;;;;;;;169.18;157.77;;;;;;;;;;4412397;32;20061;-87
2021/04/21 01:37:49;;;;;;;174.18;162.88;;;;;;;;;;4434736;32;20083;-85
2021/04/21 01:40:22;;;;;;;275.33;256.45;;;;;;;;;;4422989;32;20118;-83
2021/04/21 01:42:54;;;;;;;150.10;140.45;;;;;;;;;;4423797;32;20109;-84
2021/04/21 01:45:29;;;;;;;174.93;162.98;;;;;;;;;;4415725;32;20063;-82
2021/04/21 01:48:02;;;;;;;121.70;113.00;;;;;;;;;;4420629;32;20243;-85
2021/04/21 01:50:34;;;;;;;70.55;65.43;;;;;;;;;;4424212;32;20121;-87
2021/04/21 01:53:12;;;;;;;66.85;62.62;;;;;;;;;;4421729;32;20088;-83
2021/04/21 01:55:45;;;;;;;116.93;109.55;;;;;;;;;;4401946;32;20144;-87
2021/04/21 01:58:19;;;;;;;141.88;132.75;;;;;;;;;;4422333;32;20316;-85
2021/04/21 02:00:50;;;;;;;78.62;73.53;;;;;;;;;;4423704;32;20147;-83
2021/04/21 02:03:24;;;;;;;86.78;81.15;;;;;;;;;;4430179;32;20306;-85
2021/04/21 02:06:13;;;;;;;54.25;50.65;;;;;;;;;;4415665;32;20058;-82
2021/04/21 02:08:58;;;;;;;47.13;43.55;;;;;;;;;;4427515;32;20132;-85
2021/04/21 02:11:31;;;;;;;97.10;90.55;;;;;;;;;;4420596;32;20166;-85
2021/04/21 02:14:20;;;;;;;75.80;70.57;;;;;;;;;;4419948;32;20463;-82
2021/04/21 02:17:05;;;;;;;62.70;58.72;;;;;;;;;;4409858;32;20055;-85
2021/04/21 02:19:55;;;;;;;71.43;66.93;;;;;;;;;;4426020;32;20117;-85
2021/04/21 02:22:49;;;;;;;51.55;48.22;;;;;;;;;;4430928;32;20253;-83
2021/04/21 02:25:38;;;;;;;78.10;72.60;;;;;;;;;;4416672;32;20480;-82
2021/04/21 02:28:09;;;;;;;73.55;68.90;;;;;;;;;;4420881;32;20062;-88
2021/04/21 02:30:58;;;;;;;58.35;54.17;;;;;;;;;;4420994;32;20164;-86
2021/04/21 02:33:44;;;;;;;125.95;117.75;;;;;;;;;;4417092;32;20103;-86
2021/04/21 02:36:26;;;;;;;91.28;85.07;;;;;;;;;;4413445;32;20117;-85
2021/04/21 02:39:16;;;;;;;91.43;85.15;;;;;;;;;;4418331;32;20041;-85
2021/04/21 02:42:03;;;;;;;108.12;100.75;;;;;;;;;;4431654;32;20053;-88
2021/04/21 02:44:36;;;;;;;148.62;138.37;;;;;;;;;;4415688;32;20169;-83
2021/04/21 02:47:11;;;;;;;108.10;100.82;;;;;;;;;;4401709;32;20117;-86
2021/04/21 02:50:00;;;;;;;217.00;202.18;;;;;;;;;;4405370;32;20121;-83
2021/04/21 02:52:38;;;;;;;326.17;304.25;;;;;;;;;;4406838;32;20154;-84
2021/04/21 02:55:15;;;;;;;266.85;248.65;;;;;;;;;;4414818;32;20105;-83
2021/04/21 02:58:08;;;;;;;269.60;251.73;;;;;;;;;;4425931;32;20107;-84
2021/04/21 03:00:45;;;;;;;268.85;251.35;;;;;;;;;;4419470;32;20085;-82
2021/04/21 03:03:31;;;;;;;220.68;206.02;;;;;;;;;;4414812;32;20053;-85
2021/04/21 03:06:06;;;;;;;178.32;167.20;;;;;;;;;;4419030;32;20089;-85
2021/04/21 03:08:43;;;;;;;263.35;245.65;;;;;;;;;;4403874;32;20489;-85
2021/04/21 03:11:24;;;;;;;261.00;244.37;;;;;;;;;;4415026;27;20094;-94
2021/04/21 03:14:00;;;;;;;215.93;201.43;;;;;;;;;;4354495;32;20107;-95
2021/04/21 03:16:35;;;;;;;178.40;166.93;;;;;;;;;;4361811;32;20036;-95
2021/04/21 03:19:12;;;;;;;79.80;74.40;;;;;;;;;;4361882;32;20108;-94
2021/04/21 03:21:55;;;;;;;358.00;333.35;;;;;;;;;;4360379;32;20463;-93
2021/04/21 03:24:27;;;;;;;282.80;264.12;;;;;;;;;;4366450;32;20847;-94
2021/04/21 03:26:59;;;;;;;277.20;258.90;;;;;;;;;;4363098;32;20047;-95
2021/04/21 03:29:35;;;;;;;324.23;304.55;;;;;;;;;;4357600;32;20056;-94
2021/04/21 03:32:12;;;;;;;197.75;185.32;;;;;;;;;;4345120;33;20055;-96
2021/04/21 03:34:54;;;;;;;314.92;292.65;;;;;;;;;;4373917;32;20088;-94
2021/04/21 03:37:30;;;;;;;260.98;243.23;;;;;;;;;;4359629;32;20043;-93
2021/04/21 03:40:07;;;;;;;282.48;262.95;;;;;;;;;;4348088;33;20095;-95
2021/04/21 03:42:41;;;;;;;274.90;257.25;;;;;;;;;;4347963;32;20062;-94
2021/04/21 03:45:21;;;;;;;242.18;225.55;;;;;;;;;;4373194;32;20081;-95
2021/04/21 03:47:57;;;;;;;367.15;342.98;;;;;;;;;;4360575;32;20074;-93
2021/04/21 03:50:26;;;;;;;167.00;155.85;;;;;;;;;;4350771;32;20070;-93
2021/04/21 03:53:17;;;;;;;259.75;241.40;;;;;;;;;;4344602;33;20078;-94
2021/04/21 03:55:46;;;;;;;269.48;252.23;;;;;;;;;;4359904;32;20090;-95
2021/04/21 03:58:23;;;;;;;280.35;262.50;;;;;;;;;;4358860;32;20055;-95
2021/04/21 04:01:18;;;;;;;89.72;84.30;;;;;;;;;;4361082;32;20079;-93
2021/04/21 04:03:54;;;;;;;328.48;306.20;;;;;;;;;;4355754;32;20048;-93
2021/04/21 04:06:34;;;;;;;168.10;157.68;;;;;;;;;;4360403;32;20091;-94
2021/04/21 04:09:10;;;;;;;155.63;146.27;;;;;;;;;;4359506;32;20051;-94
2021/04/21 04:11:51;;;;;;;171.68;160.55;;;;;;;;;;4342875;32;20064;-95
2021/04/21 04:14:24;;;;;;;127.35;119.87;;;;;;;;;;4348070;33;20056;-92
2021/04/21 04:17:04;;;;;;;156.17;145.70;;;;;;;;;;4360509;32;20097;-94
2021/04/21 04:19:38;;;;;;;99.03;92.78;;;;;;;;;;4347221;33;20094;-95
2021/04/21 04:22:28;;;;;;;173.10;161.55;;;;;;;;;;4347159;33;20070;-95
2021/04/21 04:25:24;;;;;;;47.28;44.65;;;;;;;;;;4369730;32;20036;-94
2021/04/21 04:27:57;;;;;;;133.30;124.90;;;;;;;;;;4355673;32;20126;-94
2021/04/21 04:30:32;;;;;;;162.93;151.90;;;;;;;;;;4349979;32;20116;-95
2021/04/21 04:33:16;;;;;;;176.60;165.37;;;;;;;;;;4350168;33;20051;-95
2021/04/21 04:36:04;;;;;;;126.03;117.78;;;;;;;;;;4359144;32;20113;-94
2021/04/21 04:38:51;;;;;;;135.05;125.68;;;;;;;;;;4347482;33;20047;-93
2021/04/21 04:41:28;;;;;;;70.18;65.70;;;;;;;;;;4347908;32;20094;-95
2021/04/21 04:44:04;;;;;;;139.00;130.30;;;;;;;;;;4364152;32;20115;-95
2021/04/21 04:46:49;;;;;;;73.32;68.65;;;;;;;;;;4345667;33;20105;-95
2021/04/21 04:49:21;;;;;;;49.42;45.97;;;;;;;;;;4370804;32;20093;-95
2021/04/21 04:51:53;;;;;;;39.95;37.35;;;;;;;;;;4360248;32;20059;-94
2021/04/21 04:54:25;;;;;;;40.90;38.05;;;;;;;;;;4371633;32;20055;-95
2021/04/21 04:56:57;;;;;;;47.67;44.80;;;;;;;;;;4372334;32;20164;-94
2021/04/21 04:59:28;;;;;;;53.60;49.75;;;;;;;;;;4366736;32;20081;-95
2021/04/21 05:02:04;;;;;;;43.13;40.38;;;;;;;;;;4346359;32;20105;-95
2021/04/21 05:04:48;;;;;;;41.08;38.65;;;;;;;;;;4348028;32;20036;-95
2021/04/21 05:07:33;;;;;;;63.30;59.45;;;;;;;;;;4370277;32;20109;-95
2021/04/21 05:10:05;;;;;;;55.20;51.55;;;;;;;;;;4348227;33;20113;-95
2021/04/21 05:12:40;;;;;;;68.80;64.07;;;;;;;;;;4357912;32;20071;-94
2021/04/21 05:15:31;;;;;;;81.10;75.35;;;;;;;;;;4346934;32;20498;-95
2021/04/21 05:18:32;;;;;;;78.53;73.07;;;;;;;;;;4360196;32;20047;-94
2021/04/21 05:21:34;;;;;;;86.80;81.03;;;;;;;;;;4356362;32;20063;-94
2021/04/21 05:24:21;;;;;;;136.30;127.40;;;;;;;;;;4345402;32;20113;-95
2021/04/21 05:27:13;;;;;;;59.10;54.88;;;;;;;;;;4348670;32;20700;-95
2021/04/21 05:29:47;;;;;;;;;;;;;;;;;;4359381;32;20044;-93
2021/04/21 05:32:21;;;;;;;87.50;81.35;;;;;;;;;;4346833;32;19955;-95
2021/04/21 05:35:22;;;;;;;101.22;94.15;;;;;;;;;;4348421;32;20142;-95
2021/04/21 05:38:17;;;;;;;126.53;118.05;;;;;;;;;;4349151;32;20090;-93
2021/04/21 05:41:04;;;;;;;93.12;86.53;;;;;;;;;;4371197;32;20112;-95
2021/04/21 05:43:53;;;;;;;144.07;134.73;;;;;;;;;;4358230;32;20056;-95
2021/04/21 05:46:42;;;;;;;113.00;105.22;;;;;;;;;;4370285;32;20040;-95
2021/04/21 05:49:13;;;;;;;72.30;66.82;;;;;;;;;;4358992;32;20051;-93
2021/04/21 05:52:11;;;;;;;66.25;61.37;;;;;;;;;;4359721;32;20153;-96
2021/04/21 05:54:51;;;;;;;90.10;83.72;;;;;;;;;;4339707;32;20070;-96
2021/04/21 05:57:44;;;;;;;93.65;86.82;;;;;;;;;;4348558;32;20079;-95
2021/04/21 06:00:21;;;;;;;85.53;79.57;;;;;;;;;;4345814;32;20065;-93
2021/04/21 06:02:57;;;;;;;77.97;72.50;;;;;;;;;;4362502;32;20089;-94
2021/04/21 06:05:34;;;;;;;68.18;63.15;;;;;;;;;;4358708;32;20048;-96
2021/04/21 06:12:32;;;;;;;69.00;64.85;;;;;;;;;;4366251;32;20055;-96
2021/04/21 06:15:54;;;;;;;91.20;85.22;;;;;;;;;;4273160;33;20233;-96
2021/04/21 06:19:04;;;;;;;97.25;91.12;;;;;;;;;;4267075;33;20101;-96
2021/04/21 06:22:21;;;;;;;99.37;92.82;;;;;;;;;;4298443;33;20048;-96
2021/04/21 06:25:44;;;;;;;158.85;148.32;;;;;;;;;;4335211;33;20054;-96
2021/04/21 06:28:39;;;;;;;293.60;275.20;;;;;;;;;;4335871;33;20041;-96
2021/04/21 06:32:01;;;;;;;219.05;205.25;;;;;;;;;;4321035;33;20176;-96
2021/04/21 06:34:40;;;;;;;302.42;281.65;;;;;;;;;;4361694;32;20052;-96
2021/04/21 06:37:22;;;;;;;;;;;;;;;;;;;;;
2021/04/21 06:40:10;;;;;;;228.05;212.70;;;;;;;;;;4362281;32;20146;-96
2021/04/21 06:43:11;;;;;;;128.05;119.90;;;;;;;;;;4362310;32;20063;-96
2021/04/21 06:46:33;;;;;;;74.12;69.57;;;;;;;;;;4356155;32;20316;-96
2021/04/21 06:49:11;;;;;;;339.70;316.30;;;;;;;;;;4367089;32;20055;-96
2021/04/21 06:51:49;;;;;;;128.68;119.10;;;;;;;;;;4349430;32;20122;-95
2021/04/21 06:54:34;;;;;;;210.00;195.85;;;;;;;;;;4348965;33;20083;-95
2021/04/21 06:57:03;;;;;;;152.45;143.07;;;;;;;;;;4358974;32;20112;-94
2021/04/21 06:59:33;;;;;;;371.83;345.73;;;;;;;;;;4345894;33;20050;-95
2021/04/21 07:02:04;;;;;;;423.10;394.00;;;;;;;;;;4355667;32;20071;-95
2021/04/21 07:04:46;;;;;;;535.50;494.92;;;;;;;;;;4353397;32;20075;-96
2021/04/21 07:10:20;;;;;;;393.55;357.87;;;;;;;;;;4372705;32;20158;-96
2021/04/21 07:12:57;;;;;;;296.23;271.77;;;;;;;;;;4360580;33;20514;-96
2021/04/21 07:15:36;;;;;;;635.42;576.22;;;;;;;;;;4370526;32;21096;-96
2021/04/21 07:18:30;;;;;;;570.03;521.55;;;;;;;;;;4348187;32;20056;-96
2021/04/21 07:21:06;;;;;;;632.88;572.15;;;;;;;;;;4359078;32;20076;-96
2021/04/21 07:23:58;;;;;;;735.35;669.55;;;;;;;;;;4348743;32;20063;-96
2021/04/21 07:27:19;;;;;;;548.62;501.27;;;;;;;;;;4365511;32;20150;-96
2021/04/21 07:30:00;;;;;;;562.45;515.67;;;;;;;;;;4367376;32;20492;-96
2021/04/21 07:32:32;;;;;;;624.33;570.47;;;;;;;;;;4334397;33;20044;-95
2021/04/21 07:35:45;;;;;;;730.83;663.00;;;;;;;;;;4348975;33;20052;-96
2021/04/21 07:38:23;;;;;;;776.00;701.53;;;;;;;;;;4328061;33;20155;-96
2021/04/21 07:41:13;;;;;;;562.72;510.50;;;;;;;;;;4312538;33;20049;-96
2021/04/21 07:47:50;;;;;;;507.02;464.00;;;;;;;;;;4372398;32;20632;-96
2021/04/21 07:51:09;;;;;;;517.40;470.70;;;;;;;;;;4361862;32;20852;-96
2021/04/21 07:54:07;;;;;;;615.95;559.13;;;;;;;;;;4360971;33;20059;-96
2021/04/21 07:56:53;;;;;;;398.02;364.75;;;;;;;;;;4350893;33;20052;-96
2021/04/21 07:59:44;;;;;;;733.95;663.83;;;;;;;;;;4373921;32;20074;-96
2021/04/21 08:02:38;;;;;;;849.40;766.37;;;;;;;;;;4359216;32;20544;-96
2021/04/21 08:05:16;;;;;;;728.60;662.60;;;;;;;;;;4371729;32;20061;-96
2021/04/21 08:07:50;;;;;;;;;;;;;;;;;;4361653;32;20048;-96
2021/04/21 08:10:25;;;;;;;718.40;655.70;;;;;;;;;;4350357;32;19982;-96
2021/04/21 08:13:13;;;;;;;533.22;485.55;;;;;;;;;;4374013;32;20073;-96
2021/04/21 08:15:52;;;;;;;839.12;764.28;;;;;;;;;;4357179;32;20063;-96
2021/04/21 08:18:42;;;;;;;689.75;623.83;;;;;;;;;;4365465;32;20052;-96
2021/04/21 08:21:35;;;;;;;601.73;552.03;;;;;;;;;;4363188;32;20416;-96
2021/04/21 08:24:26;;;;;;;890.00;805.00;;;;;;;;;;4362649;32;20065;-96
2021/04/21 08:27:34;;;;;;;510.85;465.88;;;;;;;;;;4354143;33;20048;-96
2021/04/21 08:33:10;;;;;;;662.30;602.05;;;;;;;;;;4359013;33;20068;-96
2021/04/21 08:36:18;;;;;;;758.33;689.72;;;;;;;;;;4369887;32;20057;-96
2021/04/21 08:39:01;;;;;;;446.15;404.65;;;;;;;;;;4377234;32;20041;-96
2021/04/21 08:41:34;;;;;;;485.33;444.05;;;;;;;;;;4365429;32;20086;-96
2021/04/21 08:44:15;;;;;;;541.05;490.75;;;;;;;;;;4351889;32;20044;-95
2021/04/21 08:46:43;;;;;;;527.17;478.20;;;;;;;;;;4367077;32;20074;-95
2021/04/21 08:49:26;;;;;;;668.83;607.10;;;;;;;;;;4366224;32;20380;-95
2021/04/21 08:52:01;;;;;;;608.45;554.95;;;;;;;;;;4364325;32;20110;-96
2021/04/21 08:54:36;;;;;;;752.67;683.60;;;;;;;;;;4363144;32;20051;-96
2021/04/21 08:57:26;;;;;;;612.60;556.20;;;;;;;;;;4365519;32;20086;-96
2021/04/21 09:00:15;;;;;;;;;;;;;;;;;;;;;
2021/04/21 09:06:59;;;;;;;197.95;178.48;;;;;;;;;;4312819;33;20235;-96
2021/04/21 09:10:21;;;;;;;281.85;258.50;;;;;;;;;;4310695;33;20051;-96
2021/04/21 09:13:25;;;;;;;780.65;704.85;;;;;;;;;;4281741;33;20051;-96
2021/04/21 09:16:22;;;;;;;1651.88;889.10;;;;;;;;;;4259440;33;20054;-96
2021/04/21 09:19:33;;;;;;;;;;;;;;;;;;;;;
2021/04/21 09:22:13;;;;;;;1999.90;999.90;;;;;;;;;;4310065;33;20060;-96
2021/04/21 09:24:56;;;;;;;672.03;613.72;;;;;;;;;;4329649;33;20095;-96
2021/04/21 09:27:37;;;;;;;424.88;389.30;;;;;;;;;;4323894;33;20066;-96
2021/04/21 09:30:16;;;;;;;687.53;626.83;;;;;;;;;;4317193;33;20057;-96
2021/04/21 09:32:51;;;;;;;429.90;392.27;;;;;;;;;;4314206;33;20839;-95
2021/04/21 09:35:27;;;;;;;767.42;696.28;;;;;;;;;;4308150;33;20099;-96
2021/04/21 09:38:37;;;;;;;682.85;623.78;;;;;;;;;;4332411;33;20489;-96
2021/04/21 09:41:17;;;;;;;551.90;502.17;;;;;;;;;;4311284;33;20094;-96
2021/04/21 09:44:12;;;;;;;682.92;622.15;;;;;;;;;;4309346;33;20052;-95
2021/04/21 09:46:57;;;;;;;865.43;779.53;;;;;;;;;;4321203;33;20041;-96
2021/04/21 09:49:44;;;;;;;529.30;484.05;;;;;;;;;;4326428;33;20080;-96
2021/04/21 09:52:22;;;;;;;740.62;672.03;;;;;;;;;;4376333;32;20051;-96
2021/04/21 09:55:37;;;;;;;439.17;399.35;;;;;;;;;;4363729;32;20089;-96
2021/04/21 09:59:32;;;;;;;1158.35;643.63;;;;;;;;;;4362487;32;20051;-96
2021/04/21 10:02:01;;;;;;;270.55;243.23;;;;;;;;;;4361233;32;20090;-96
2021/04/21 10:05:12;;;;;;;150.98;138.37;;;;;;;;;;4364100;32;20069;-96
2021/04/21 10:08:25;;;;;;;1181.25;664.87;;;;;;;;;;4354177;32;20070;-96
2021/04/21 10:11:32;;;;;;;409.90;373.15;;;;;;;;;;4375916;32;20102;-96
2021/04/21 10:14:39;;;;;;;367.45;333.87;;;;;;;;;;4351222;33;20048;-96
2021/04/21 10:17:44;;;;;;;;;;;;;;;;;;;;;
2021/04/21 10:20:55;;;;;;;254.60;233.15;;;;;;;;;;4351521;33;20056;-96
2021/04/21 10:23:49;;;;;;;212.30;193.90;;;;;;;;;;4354096;33;20437;-96
2021/04/21 10:27:16;;;;;;;150.55;139.18;;;;;;;;;;4347021;33;20078;-96
2021/04/21 10:30:42;;;;;;;169.13;155.70;;;;;;;;;;4349791;33;20108;-96
2021/04/21 10:33:37;;;;;;;397.50;361.20;;;;;;;;;;4340846;33;20067;-96
2021/04/21 10:36:07;;;;;;;647.63;591.30;;;;;;;;;;4351521;32;20109;-96
2021/04/21 10:38:41;;;;;;;572.50;524.08;;;;;;;;;;4342491;33;20106;-96
2021/04/21 10:41:36;;;;;;;480.05;440.85;;;;;;;;;;4330777;33;20133;-96
2021/04/21 10:44:11;;;;;;;500.50;456.77;;;;;;;;;;4344810;33;20107;-96
2021/04/21 10:47:08;;;;;;;341.17;312.33;;;;;;;;;;4331717;33;20112;-96
2021/04/21 10:50:00;;;;;;;375.25;342.48;;;;;;;;;;4321651;33;20067;-96
2021/04/21 10:52:40;;;;;;;488.83;448.27;;;;;;;;;;4317538;33;20057;-96
2021/04/21 10:55:18;;;;;;;514.97;467.83;;;;;;;;;;4338205;33;20114;-96
2021/04/21 10:58:24;;;;;;;655.53;590.38;;;;;;;;;;4338766;33;20036;-96
2021/04/21 11:04:12;;;;;;;327.42;299.98;;;;;;;;;;4340168;33;20064;-96
2021/04/21 11:06:50;;;;;;;368.10;336.73;;;;;;;;;;4330163;33;20056;-96
2021/04/21 11:09:46;;;;;;;530.03;479.52;;;;;;;;;;4327209;33;20056;-96
2021/04/21 11:12:45;;;;;;;298.05;272.25;;;;;;;;;;4330092;33;20083;-96
2021/04/21 11:15:41;;;;;;;531.25;485.60;;;;;;;;;;4334046;33;20857;-95
2021/04/21 11:18:23;;;;;;;;;;;;;;;;;;4344351;33;20056;-96
2021/04/21 11:20:54;;;;;;;422.90;382.67;;;;;;;;;;4344925;33;19943;-96
2021/04/21 11:23:45;;;;;;;636.38;580.72;;;;;;;;;;4332329;33;20091;-96
2021/04/21 11:26:27;;;;;;;642.12;587.25;;;;;;;;;;4327478;33;20095;-96
2021/04/21 11:29:13;;;;;;;665.55;606.47;;;;;;;;;;4330015;33;20091;-95
2021/04/21 11:31:46;;;;;;;659.20;602.17;;;;;;;;;;4339639;33;20048;-96
2021/04/21 11:34:37;;;;;;;664.37;604.72;;;;;;;;;;4324243;33;20130;-96
2021/04/21 11:37:14;;;;;;;752.45;679.95;;;;;;;;;;4318626;33;20052;-96
2021/04/21 11:39:59;;;;;;;586.00;530.47;;;;;;;;;;4342001;33;20049;-96
2021/04/21 11:42:35;;;;;;;426.48;387.50;;;;;;;;;;4340731;33;20079;-96
2021/04/21 11:45:17;;;;;;;375.50;344.25;;;;;;;;;;4352709;32;20354;-96
2021/04/21 11:48:01;;;;;;;314.55;284.65;;;;;;;;;;4342328;33;20052;-96
2021/04/21 11:50:41;;;;;;;118.20;107.55;;;;;;;;;;4336778;33;20632;-96
2021/04/21 11:53:15;;;;;;;;;;;;;;;;;;4347187;33;20048;-95
2021/04/21 11:55:53;;;;;;;331.60;303.83;;;;;;;;;;4335279;33;20668;-95
2021/04/21 11:58:29;;;;;;;121.37;112.05;;;;;;;;;;4335724;33;20044;-96
2021/04/21 12:01:01;;;;;;;296.98;270.17;;;;;;;;;;4346084;33;20044;-96
2021/04/21 12:03:36;;;;;;;209.43;192.98;;;;;;;;;;4336985;33;20079;-96
2021/04/21 12:06:23;;;;;;;511.27;467.70;;;;;;;;;;4333472;33;20839;-95
2021/04/21 12:09:03;;;;;;;540.67;492.12;;;;;;;;;;4346453;33;20100;-95
2021/04/21 12:11:35;;;;;;;482.23;441.60;;;;;;;;;;4333464;33;20071;-95
2021/04/21 12:14:18;;;;;;;364.10;332.62;;;;;;;;;;4346233;33;20040;-96
2021/04/21 12:17:11;;;;;;;448.05;407.77;;;;;;;;;;4338883;33;20056;-96
2021/04/21 12:19:49;;;;;;;316.35;289.67;;;;;;;;;;4349193;33;20040;-96
2021/04/21 12:22:20;;;;;;;492.87;451.10;;;;;;;;;;4336098;33;20102;-96
2021/04/21 12:24:58;;;;;;;531.13;482.90;;;;;;;;;;4356957;33;20107;-96
2021/04/21 12:27:46;;;;;;;456.58;415.05;;;;;;;;;;4358525;33;20082;-96
2021/04/21 12:30:36;;;;;;;380.40;347.75;;;;;;;;;;4355789;33;20099;-96
2021/04/21 12:33:34;;;;;;;527.42;482.25;;;;;;;;;;4361433;32;20048;-96
2021/04/21 12:36:25;;;;;;;547.17;498.00;;;;;;;;;;4367931;33;20118;-96
2021/04/21 12:39:15;;;;;;;194.43;180.77;;;;;;;;;;4350483;33;20060;-96
2021/04/21 12:41:53;;;;;;;;;;;;;;;;;;4356487;33;20130;-96
2021/04/21 12:44:40;;;;;;;707.65;638.35;;;;;;;;;;4360236;32;19951;-96
2021/04/21 12:47:13;;;;;;;463.30;422.17;;;;;;;;;;4352305;33;20103;-96
2021/04/21 12:49:53;;;;;;;451.58;411.90;;;;;;;;;;4347209;33;20117;-95
2021/04/21 12:52:30;;;;;;;582.65;533.90;;;;;;;;;;4356782;32;20088;-96
2021/04/21 12:55:02;;;;;;;533.87;483.48;;;;;;;;;;4367638;27;20063;-84
2021/04/21 12:57:46;;;;;;;616.45;560.17;;;;;;;;;;4385195;32;20083;-84
2021/04/21 13:00:17;;;;;;;658.22;601.08;;;;;;;;;;4382130;32;20042;-83
2021/04/21 13:02:53;;;;;;;305.48;278.00;;;;;;;;;;4384601;32;20058;-83
2021/04/21 13:05:42;;;;;;;429.70;390.10;;;;;;;;;;4376226;32;20071;-84
2021/04/21 13:08:17;;;;;;;647.33;592.87;;;;;;;;;;4379976;32;20149;-85
2021/04/21 13:10:47;;;;;;;;;;;;;;;;;;4384481;32;20157;-85
2021/04/21 13:13:24;;;;;;;351.85;321.25;;;;;;;;;;4372299;32;19985;-86
2021/04/21 13:15:55;;;;;;;378.12;345.75;;;;;;;;;;4392422;32;20054;-85
2021/04/21 13:18:30;;;;;;;319.25;291.80;;;;;;;;;;4397963;32;20085;-86
2021/04/21 13:21:08;;;;;;;600.85;547.78;;;;;;;;;;4379936;32;20450;-86
2021/04/21 13:23:39;;;;;;;559.67;511.20;;;;;;;;;;4377671;32;20497;-86
2021/04/21 13:26:15;;;;;;;545.20;501.50;;;;;;;;;;4388050;32;20058;-85
2021/04/21 13:28:51;;;;;;;364.38;333.95;;;;;;;;;;4389834;32;20059;-85
2021/04/21 13:31:26;;;;;;;220.15;202.48;;;;;;;;;;4388238;32;20088;-85
2021/04/21 13:33:57;;;;;;;239.12;221.00;;;;;;;;;;4381749;32;20101;-86
2021/04/21 13:36:28;;;;;;;554.25;506.45;;;;;;;;;;4379372;32;20105;-86
2021/04/21 13:38:59;;;;;;;383.90;352.50;;;;;;;;;;4381925;32;20466;-85
2021/04/21 13:41:29;;;;;;;170.55;156.73;;;;;;;;;;4383422;32;20058;-85
2021/04/21 13:43:59;;;;;;;237.52;220.02;;;;;;;;;;4380136;32;20123;-86
2021/04/21 13:46:29;;;;;;;389.85;357.25;;;;;;;;;;4379570;32;20072;-85
2021/04/21 13:49:02;;;;;;;384.08;349.40;;;;;;;;;;4381604;32;20426;-85
2021/04/21 13:51:32;;;;;;;402.50;368.10;;;;;;;;;;4381564;32;20795;-85
2021/04/21 13:54:03;;;;;;;644.92;583.25;;;;;;;;;;4386322;32;20113;-85
2021/04/21 13:56:33;;;;;;;340.37;313.65;;;;;;;;;;4378591;32;20101;-85
2021/04/21 13:59:04;;;;;;;513.90;472.00;;;;;;;;;;4382562;32;20116;-85
2021/04/21 14:01:36;;;;;;;746.55;681.72;;;;;;;;;;4387487;32;20438;-85
2021/04/21 14:04:07;;;;;;;352.77;321.40;;;;;;;;;;4376620;32;20428;-85
2021/04/21 14:06:38;;;;;;;714.00;639.58;;;;;;;;;;4374574;32;20258;-85
2021/04/21 14:09:09;;;;;;;542.37;494.33;;;;;;;;;;4383506;32;20139;-85
2021/04/21 14:11:43;;;;;;;452.83;413.52;;;;;;;;;;4390120;32;20047;-85
2021/04/21 14:14:14;;;;;;;652.15;595.12;;;;;;;;;;4383295;32;20106;-86
2021/04/21 14:16:45;;;;;;;468.60;426.75;;;;;;;;;;4374761;32;20597;-86
2021/04/21 14:19:16;;;;;;;211.60;194.95;;;;;;;;;;4383910;32;20131;-85
2021/04/21 14:21:46;;;;;;;607.42;552.67;;;;;;;;;;4352535;32;20055;-85
2021/04/21 14:24:16;;;;;;;593.53;540.35;;;;;;;;;;4375010;32;20162;-85
2021/04/21 14:26:48;;;;;;;547.10;501.40;;;;;;;;;;4376536;32;20090;-85
2021/04/21 14:29:19;;;;;;;594.33;543.03;;;;;;;;;;4383961;32;20533;-85
2021/04/21 14:31:50;;;;;;;383.90;349.58;;;;;;;;;;4382639;32;20101;-85
2021/04/21 14:34:20;;;;;;;304.17;281.45;;;;;;;;;;4369861;32;20115;-84
2021/04/21 14:36:51;;;;;;;519.65;473.33;;;;;;;;;;4381524;32;20043;-85
2021/04/21 14:39:22;;;;;;;711.88;650.50;;;;;;;;;;4385254;32;20092;-85
2021/04/21 14:41:53;;;;;;;419.80;385.38;;;;;;;;;;4380280;32;20853;-85
2021/04/21 14:44:23;;;;;;;368.40;339.55;;;;;;;;;;4377942;32;20098;-85
2021/04/21 14:46:54;;;;;;;292.42;269.80;;;;;;;;;;4386390;32;20121;-85
2021/04/21 14:49:25;;;;;;;498.50;455.37;;;;;;;;;;4358726;32;20598;-85
2021/04/21 14:51:55;;;;;;;515.80;471.00;;;;;;;;;;4390134;32;20062;-85
2021/04/21 14:54:26;;;;;;;790.00;703.88;;;;;;;;;;4378589;32;20133;-86
2021/04/21 14:56:56;;;;;;;480.17;441.55;;;;;;;;;;4380511;32;20123;-85
2021/04/21 14:59:26;;;;;;;431.00;394.13;;;;;;;;;;4382876;32;20047;-86
2021/04/21 15:01:57;;;;;;;558.03;507.40;;;;;;;;;;4382662;32;20050;-85
2021/04/21 15:04:28;;;;;;;766.03;691.72;;;;;;;;;;4380241;32;20208;-85
2021/04/21 15:06:59;;;;;;;438.33;401.02;;;;;;;;;;4371829;32;20074;-85
2021/04/21 15:09:30;;;;;;;591.72;542.35;;;;;;;;;;4387444;32;20061;-86
2021/04/21 15:12:01;;;;;;;608.40;555.42;;;;;;;;;;4391615;32;20066;-86
2021/04/21 15:14:32;;;;;;;611.75;555.47;;;;;;;;;;4389159;32;20458;-86
2021/04/21 15:17:02;;;;;;;398.08;365.92;;;;;;;;;;4371868;32;20708;-85
2021/04/21 15:19:33;;;;;;;590.12;535.30;;;;;;;;;;4395873;32;20092;-86
2021/04/21 15:22:04;;;;;;;659.17;604.85;;;;;;;;;;4400614;32;20159;-86
2021/04/21 15:24:36;;;;;;;699.95;630.83;;;;;;;;;;4378618;32;20063;-85
2021/04/21 15:27:07;;;;;;;656.17;597.63;;;;;;;;;;4384772;32;20168;-86
2021/04/21 15:29:38;;;;;;;335.85;308.63;;;;;;;;;;4382391;32;20120;-84
2021/04/21 15:32:09;;;;;;;580.00;525.35;;;;;;;;;;4383937;32;20062;-85
2021/04/21 15:34:40;;;;;;;636.58;581.87;;;;;;;;;;4386913;32;20097;-85
2021/04/21 15:37:21;;;;;;;609.45;544.45;;;;;;;;;;4389728;32;20516;-85
2021/04/21 15:40:05;;;;;;;745.22;676.72;;;;;;;;;;4379382;32;20114;-84
2021/04/21 15:42:35;;;;;;;594.72;538.15;;;;;;;;;;4387064;32;20296;-85
2021/04/21 15:45:06;;;;;;;360.08;330.75;;;;;;;;;;4388270;32;20108;-85